Time;durP1;ratioP1;P1;durP2;ratioP2;P2;SDS_P1;SDS_P2;PMS_P1;PMS_P2;Temp;Humidity;BMP_temperature;BMP_pressure;BME280_temperature;BME280_humidity;BME280_pressure;Samples;Min_cycle;Max_cycle;Signal;HPM_P1;HPM_P2
2021/08/11 00:00:48;;;;;;;;;4.00;4.00;;;;;;;;5149058;27;45327;-78
2021/08/11 00:03:14;;;;;;;;;3.33;3.33;;;;;;;;5154701;27;45779;-78
2021/08/11 00:05:41;;;;;;;;;3.00;3.00;;;;;;;;5145062;27;45539;-78
2021/08/11 00:08:06;;;;;;;;;4.00;4.00;;;;;;;;5150400;27;45391;-78
2021/08/11 00:10:31;;;;;;;;;5.00;5.00;;;;;;;;5147085;27;45281;-79
2021/08/11 00:12:57;;;;;;;;;5.00;4.67;;;;;;;;5145857;27;45428;-78
2021/08/11 00:15:22;;;;;;;;;4.00;4.00;;;;;;;;5156551;27;45383;-78
2021/08/11 00:17:47;;;;;;;;;4.00;4.00;;;;;;;;5149823;27;45362;-78
2021/08/11 00:20:13;;;;;;;;;2.67;2.67;;;;;;;;5148084;27;45353;-78
2021/08/11 00:22:38;;;;;;;;;3.67;3.67;;;;;;;;5151918;27;45451;-78
2021/08/11 00:25:04;;;;;;;;;4.00;3.33;;;;;;;;5147450;27;45177;-78
2021/08/11 00:27:30;;;;;;;;;4.33;4.33;;;;;;;;5146367;27;45500;-77
2021/08/11 00:29:56;;;;;;;;;7.67;4.00;;;;;;;;5153841;27;45558;-78
2021/08/11 00:32:21;;;;;;;;;6.33;6.33;;;;;;;;5144003;27;45338;-78
2021/08/11 00:34:47;;;;;;;;;5.00;3.33;;;;;;;;5144359;27;45920;-78
2021/08/11 00:37:12;;;;;;;;;5.00;5.00;;;;;;;;5144638;27;45297;-78
2021/08/11 00:39:39;;;;;;;;;4.67;4.67;;;;;;;;5151981;27;45361;-78
2021/08/11 00:42:04;;;;;;;;;3.67;3.67;;;;;;;;5149673;27;45383;-78
2021/08/11 00:44:30;;;;;;;;;4.33;4.00;;;;;;;;5156270;27;45344;-78
2021/08/11 00:46:55;;;;;;;;;5.33;5.00;;;;;;;;5151561;27;45328;-78
2021/08/11 00:49:21;;;;;;;;;3.00;3.00;;;;;;;;5154061;27;45386;-78
2021/08/11 00:51:46;;;;;;;;;3.33;3.33;;;;;;;;5144254;27;45349;-78
2021/08/11 00:54:12;;;;;;;;;4.00;3.00;;;;;;;;5155534;27;45299;-78
2021/08/11 00:56:39;;;;;;;;;4.00;4.00;;;;;;;;5155472;27;45289;-77
2021/08/11 00:59:05;;;;;;;;;3.00;3.00;;;;;;;;5145063;27;45281;-78
2021/08/11 01:01:32;;;;;;;;;5.33;5.33;;;;;;;;5153440;27;45254;-78
2021/08/11 01:03:58;;;;;;;;;4.00;3.67;;;;;;;;5150777;27;46161;-78
2021/08/11 01:06:24;;;;;;;;;3.33;3.33;;;;;;;;5150955;27;45334;-78
2021/08/11 01:08:50;;;;;;;;;3.00;3.00;;;;;;;;5147155;27;45358;-78
2021/08/11 01:11:17;;;;;;;;;3.00;3.00;;;;;;;;5143080;27;45496;-78
2021/08/11 01:13:43;;;;;;;;;4.00;4.00;;;;;;;;5155574;27;45359;-78
2021/08/11 01:16:09;;;;;;;;;2.33;2.33;;;;;;;;5149797;27;45229;-78
2021/08/11 01:18:34;;;;;;;;;4.00;4.00;;;;;;;;5147218;27;45283;-77
2021/08/11 01:21:05;;;;;;;;;3.67;3.00;;;;;;;;5155640;27;45724;-78
2021/08/11 01:23:38;;;;;;;;;4.33;4.33;;;;;;;;5147472;27;46121;-78
2021/08/11 01:26:10;;;;;;;;;6.00;6.00;;;;;;;;5148403;27;45329;-78
2021/08/11 01:28:51;;;;;;;;;4.33;4.33;;;;;;;;5145163;27;45364;-78
2021/08/11 01:31:18;;;;;;;;;4.00;4.00;;;;;;;;5151708;27;45406;-78
2021/08/11 01:33:46;;;;;;;;;5.67;5.67;;;;;;;;5148654;27;46133;-78
2021/08/11 01:36:23;;;;;;;;;3.33;3.33;;;;;;;;5152531;27;45378;-78
2021/08/11 01:38:59;;;;;;;;;5.00;5.00;;;;;;;;5142461;27;45496;-77
2021/08/11 01:41:28;;;;;;;;;4.00;4.00;;;;;;;;5155248;27;45568;-78
2021/08/11 01:43:56;;;;;;;;;4.33;4.33;;;;;;;;5153372;27;45291;-78
2021/08/11 01:46:22;;;;;;;;;3.33;3.33;;;;;;;;5143606;27;45304;-78
2021/08/11 01:48:47;;;;;;;;;5.33;5.33;;;;;;;;5151589;27;45272;-78
2021/08/11 01:51:13;;;;;;;;;4.00;4.00;;;;;;;;5152537;27;45562;-78
2021/08/11 01:53:38;;;;;;;;;4.00;3.00;;;;;;;;5147680;27;45431;-78
2021/08/11 01:56:04;;;;;;;;;3.67;3.67;;;;;;;;5155274;27;45357;-78
2021/08/11 01:58:30;;;;;;;;;3.67;3.00;;;;;;;;5144069;27;45462;-78
2021/08/11 02:01:00;;;;;;;;;7.00;6.00;;;;;;;;5148582;27;45426;-78
2021/08/11 02:03:26;;;;;;;;;6.33;5.33;;;;;;;;5149107;27;45433;-78
2021/08/11 02:05:52;;;;;;;;;5.67;4.67;;;;;;;;5147060;27;45279;-78
2021/08/11 02:08:18;;;;;;;;;3.67;3.67;;;;;;;;5151025;27;45505;-78
2021/08/11 02:10:44;;;;;;;;;6.33;5.00;;;;;;;;5143570;27;45639;-78
2021/08/11 02:13:09;;;;;;;;;5.00;5.00;;;;;;;;5150780;27;45331;-78
2021/08/11 02:15:36;;;;;;;;;5.00;5.00;;;;;;;;5149976;27;45310;-78
2021/08/11 02:18:02;;;;;;;;;5.00;4.67;;;;;;;;5149436;27;45442;-78
2021/08/11 02:20:27;;;;;;;;;6.00;6.00;;;;;;;;5144432;27;45460;-78
2021/08/11 02:22:52;;;;;;;;;5.00;5.00;;;;;;;;5159069;27;45264;-78
2021/08/11 02:25:18;;;;;;;;;5.00;5.00;;;;;;;;5161779;27;45251;-78
2021/08/11 02:27:49;;;;;;;;;6.33;5.33;;;;;;;;5162068;27;45312;-78
2021/08/11 02:30:16;;;;;;;;;5.67;5.67;;;;;;;;5162071;27;45418;-78
2021/08/11 02:32:44;;;;;;;;;5.33;4.67;;;;;;;;5161985;27;45411;-79
2021/08/11 02:35:12;;;;;;;;;5.67;5.67;;;;;;;;5162109;27;45400;-78
2021/08/11 02:37:41;;;;;;;;;6.00;5.00;;;;;;;;5165792;27;45309;-78
2021/08/11 02:40:09;;;;;;;;;6.00;6.00;;;;;;;;5165400;27;45326;-78
2021/08/11 02:42:37;;;;;;;;;5.33;5.33;;;;;;;;5165408;27;45229;-79
2021/08/11 02:45:05;;;;;;;;;3.00;3.00;;;;;;;;5165701;27;45328;-78
2021/08/11 02:47:33;;;;;;;;;7.67;6.67;;;;;;;;5165616;27;45270;-79
2021/08/11 02:50:00;;;;;;;;;4.00;4.00;;;;;;;;5165906;27;45155;-79
2021/08/11 02:52:25;;;;;;;;;5.67;5.67;;;;;;;;5165450;27;46048;-78
2021/08/11 02:54:52;;;;;;;;;4.00;4.00;;;;;;;;5165857;27;45294;-79
2021/08/11 02:57:18;;;;;;;;;6.00;6.00;;;;;;;;5166023;27;45777;-78
2021/08/11 02:59:44;;;;;;;;;5.00;5.00;;;;;;;;5165281;27;45342;-78
2021/08/11 03:02:09;;;;;;;;;6.33;6.33;;;;;;;;5165372;27;45410;-79
2021/08/11 03:04:35;;;;;;;;;5.67;5.67;;;;;;;;5165231;27;45377;-78
2021/08/11 03:07:00;;;;;;;;;6.67;5.33;;;;;;;;5165370;27;45257;-78
2021/08/11 03:09:26;;;;;;;;;7.00;6.33;;;;;;;;5164972;27;45282;-78
2021/08/11 03:11:51;;;;;;;;;7.00;5.00;;;;;;;;5164890;27;46002;-79
2021/08/11 03:14:17;;;;;;;;;6.00;6.00;;;;;;;;5165179;27;45375;-79
2021/08/11 03:16:42;;;;;;;;;5.67;5.67;;;;;;;;5165072;27;45240;-79
2021/08/11 03:19:08;;;;;;;;;6.00;6.00;;;;;;;;5164643;27;45525;-79
2021/08/11 03:21:34;;;;;;;;;4.00;4.00;;;;;;;;5164850;27;45312;-79
2021/08/11 03:24:00;;;;;;;;;5.00;5.00;;;;;;;;5164832;27;45307;-79
2021/08/11 03:26:26;;;;;;;;;6.33;5.67;;;;;;;;5164851;27;45402;-79
2021/08/11 03:28:53;;;;;;;;;6.00;4.67;;;;;;;;5164658;27;45551;-79
2021/08/11 03:31:18;;;;;;;;;7.67;7.67;;;;;;;;5164687;27;46152;-79
2021/08/11 03:33:43;;;;;;;;;5.67;5.67;;;;;;;;5164712;27;45360;-78
2021/08/11 03:36:09;;;;;;;;;5.00;5.00;;;;;;;;5164892;27;45356;-78
2021/08/11 03:38:34;;;;;;;;;7.00;7.00;;;;;;;;5164557;27;45478;-79
2021/08/11 03:40:59;;;;;;;;;4.33;4.33;;;;;;;;5164658;27;45367;-79
2021/08/11 03:43:25;;;;;;;;;5.67;5.67;;;;;;;;5164671;27;45271;-79
2021/08/11 03:45:51;;;;;;;;;5.00;5.00;;;;;;;;5164705;27;45351;-79
2021/08/11 03:48:16;;;;;;;;;5.00;4.67;;;;;;;;5163335;27;45282;-79
2021/08/11 03:50:41;;;;;;;;;7.33;6.67;;;;;;;;5164428;27;45238;-79
2021/08/11 03:53:07;;;;;;;;;4.00;4.00;;;;;;;;5164294;27;45208;-79
2021/08/11 03:55:32;;;;;;;;;5.00;5.00;;;;;;;;5164643;27;45290;-79
2021/08/11 03:58:00;;;;;;;;;6.67;6.67;;;;;;;;5164271;27;45220;-79
2021/08/11 04:00:26;;;;;;;;;4.00;4.00;;;;;;;;5164320;27;46655;-79
2021/08/11 04:02:52;;;;;;;;;6.00;6.00;;;;;;;;5164393;27;45410;-79
2021/08/11 04:05:17;;;;;;;;;6.67;5.67;;;;;;;;5164509;27;45333;-79
2021/08/11 04:07:42;;;;;;;;;4.67;4.67;;;;;;;;5164190;27;45361;-79
2021/08/11 04:10:09;;;;;;;;;6.00;5.00;;;;;;;;5164121;27;45395;-79
2021/08/11 04:12:34;;;;;;;;;6.33;5.00;;;;;;;;5164045;27;45243;-79
2021/08/11 04:15:00;;;;;;;;;4.33;4.00;;;;;;;;5164267;27;45252;-79
2021/08/11 04:17:25;;;;;;;;;5.00;5.00;;;;;;;;5163667;27;45347;-79
2021/08/11 04:19:51;;;;;;;;;6.33;5.00;;;;;;;;5163972;27;45826;-79
2021/08/11 04:22:16;;;;;;;;;7.00;5.67;;;;;;;;5163926;27;45315;-79
2021/08/11 04:24:41;;;;;;;;;6.33;5.33;;;;;;;;5164183;27;45225;-79
2021/08/11 04:27:07;;;;;;;;;5.00;5.00;;;;;;;;5163758;27;45251;-79
2021/08/11 04:29:32;;;;;;;;;6.33;5.33;;;;;;;;5163638;27;45216;-79
2021/08/11 04:31:57;;;;;;;;;5.67;5.67;;;;;;;;5163932;27;45192;-79
2021/08/11 04:34:23;;;;;;;;;5.67;4.00;;;;;;;;5163947;27;45271;-79
2021/08/11 04:36:48;;;;;;;;;6.00;6.00;;;;;;;;5163781;27;45276;-79
2021/08/11 04:39:13;;;;;;;;;6.00;6.00;;;;;;;;5163509;27;46171;-79
2021/08/11 04:41:39;;;;;;;;;5.33;5.00;;;;;;;;5163553;27;45228;-79
2021/08/11 04:44:06;;;;;;;;;6.00;6.00;;;;;;;;5163792;27;45189;-79
2021/08/11 04:46:32;;;;;;;;;5.00;5.00;;;;;;;;5163663;27;45322;-80
2021/08/11 04:48:57;;;;;;;;;6.00;6.00;;;;;;;;5163231;27;45362;-79
2021/08/11 04:51:22;;;;;;;;;4.00;4.00;;;;;;;;5163442;27;45384;-79
2021/08/11 04:53:48;;;;;;;;;5.67;5.00;;;;;;;;5163576;27;45366;-79
2021/08/11 04:56:13;;;;;;;;;4.67;4.67;;;;;;;;5163217;27;45332;-79
2021/08/11 04:58:38;;;;;;;;;6.00;6.00;;;;;;;;5163039;27;45424;-79
2021/08/11 05:01:04;;;;;;;;;6.00;5.00;;;;;;;;5163378;27;45408;-80
2021/08/11 05:03:33;;;;;;;;;5.33;5.33;;;;;;;;5163560;27;45320;-79
2021/08/11 05:05:59;;;;;;;;;5.00;5.00;;;;;;;;5163336;27;45274;-79
2021/08/11 05:08:24;;;;;;;;;7.67;6.00;;;;;;;;5162863;27;45976;-80
2021/08/11 05:10:49;;;;;;;;;7.33;6.00;;;;;;;;5163214;27;45142;-79
2021/08/11 05:13:15;;;;;;;;;7.00;5.00;;;;;;;;5163232;27;45437;-79
2021/08/11 05:15:40;;;;;;;;;7.33;7.33;;;;;;;;5163096;27;45334;-79
2021/08/11 05:18:07;;;;;;;;;8.00;8.00;;;;;;;;5173394;27;46230;-79
2021/08/11 05:20:32;;;;;;;;;6.00;6.00;;;;;;;;5184249;27;45397;-79
2021/08/11 05:22:57;;;;;;;;;6.00;6.00;;;;;;;;5184248;27;45552;-79
2021/08/11 05:25:23;;;;;;;;;6.00;6.00;;;;;;;;5184082;27;45317;-79
2021/08/11 05:27:48;;;;;;;;;8.00;6.33;;;;;;;;5183843;27;45331;-79
2021/08/11 05:30:13;;;;;;;;;7.33;6.33;;;;;;;;5175726;27;45414;-80
2021/08/11 05:32:39;;;;;;;;;5.67;5.67;;;;;;;;5163100;27;45288;-79
2021/08/11 05:35:04;;;;;;;;;10.67;7.00;;;;;;;;5162843;27;45456;-79
2021/08/11 05:37:30;;;;;;;;;6.33;6.00;;;;;;;;5162633;27;45908;-80
2021/08/11 05:39:55;;;;;;;;;8.00;7.67;;;;;;;;5162558;27;45197;-79
2021/08/11 05:42:20;;;;;;;;;9.67;8.00;;;;;;;;5162635;27;45258;-79
2021/08/11 05:44:46;;;;;;;;;8.00;6.33;;;;;;;;5162632;27;45331;-79
2021/08/11 05:47:11;;;;;;;;;6.00;6.00;;;;;;;;5162775;27;45253;-79
2021/08/11 05:49:37;;;;;;;;;6.33;6.33;;;;;;;;5162541;27;45282;-80
2021/08/11 05:52:04;;;;;;;;;7.33;7.33;;;;;;;;5162726;27;45331;-79
2021/08/11 05:54:29;;;;;;;;;7.00;7.00;;;;;;;;5162542;27;45178;-79
2021/08/11 05:56:55;;;;;;;;;10.00;9.67;;;;;;;;5162404;27;45571;-79
2021/08/11 05:59:20;;;;;;;;;9.00;8.33;;;;;;;;5162653;27;45261;-79
2021/08/11 06:01:46;;;;;;;;;10.00;10.00;;;;;;;;5162739;27;45573;-79
2021/08/11 06:04:12;;;;;;;;;8.00;8.00;;;;;;;;5162461;27;45333;-79
2021/08/11 06:06:37;;;;;;;;;10.67;9.67;;;;;;;;5162272;27;46261;-79
2021/08/11 06:09:02;;;;;;;;;8.00;7.67;;;;;;;;5162306;27;45297;-79
2021/08/11 06:11:28;;;;;;;;;7.00;7.00;;;;;;;;5164177;27;45399;-80
2021/08/11 06:13:53;;;;;;;;;7.00;7.00;;;;;;;;5165114;27;45518;-81
2021/08/11 06:16:19;;;;;;;;;6.67;6.67;;;;;;;;5165115;27;45434;-80
2021/08/11 06:18:44;;;;;;;;;9.00;8.00;;;;;;;;5164987;27;45477;-79
2021/08/11 06:21:09;;;;;;;;;9.00;9.00;;;;;;;;5165411;27;45420;-80
2021/08/11 06:23:35;;;;;;;;;8.67;7.33;;;;;;;;5166006;27;45372;-79
2021/08/11 06:26:01;;;;;;;;;6.00;4.00;;;;;;;;5165757;27;45301;-78
2021/08/11 06:28:26;;;;;;;;;5.00;5.00;;;;;;;;5166449;27;45280;-75
2021/08/11 06:30:52;;;;;;;;;7.00;7.00;;;;;;;;5165819;27;45300;-75
2021/08/11 06:33:17;;;;;;;;;6.67;5.00;;;;;;;;5165677;27;45547;-76
2021/08/11 06:35:42;;;;;;;;;6.67;6.33;;;;;;;;5165859;27;45884;-76
2021/08/11 06:38:08;;;;;;;;;5.00;5.00;;;;;;;;5166718;27;45431;-77
2021/08/11 06:40:37;;;;;;;;;5.00;5.00;;;;;;;;5168662;27;45416;-78
2021/08/11 06:43:02;;;;;;;;;5.00;5.00;;;;;;;;5165574;27;45412;-80
2021/08/11 06:45:28;;;;;;;;;4.67;4.00;;;;;;;;5164550;27;45484;-80
2021/08/11 06:47:53;;;;;;;;;3.67;3.67;;;;;;;;5163963;27;45385;-80
2021/08/11 06:50:19;;;;;;;;;2.67;2.00;;;;;;;;5164224;27;45471;-80
2021/08/11 06:52:44;;;;;;;;;4.33;4.33;;;;;;;;5163948;27;45493;-78
2021/08/11 06:55:11;;;;;;;;;3.67;3.67;;;;;;;;5164092;27;45938;-78
2021/08/11 06:57:37;;;;;;;;;3.00;3.00;;;;;;;;5163529;27;45294;-78
2021/08/11 07:00:04;;;;;;;;;4.00;4.00;;;;;;;;5163607;27;45280;-79
2021/08/11 07:02:29;;;;;;;;;0.67;0.67;;;;;;;;5163818;27;45459;-76
2021/08/11 07:04:54;;;;;;;;;3.00;3.00;;;;;;;;5164579;27;45152;-77
2021/08/11 07:07:20;;;;;;;;;2.67;2.67;;;;;;;;5164608;27;45467;-78
2021/08/11 07:09:45;;;;;;;;;3.00;3.00;;;;;;;;5165849;27;45514;-76
2021/08/11 07:12:10;;;;;;;;;4.00;2.33;;;;;;;;5161175;27;45294;-78
2021/08/11 07:14:35;;;;;;;;;2.67;2.67;;;;;;;;5164077;27;45411;-76
2021/08/11 07:17:01;;;;;;;;;1.33;1.33;;;;;;;;5164508;27;45354;-78
2021/08/11 07:19:26;;;;;;;;;3.67;3.00;;;;;;;;5164816;27;45317;-78
2021/08/11 07:21:52;;;;;;;;;2.67;2.67;;;;;;;;5167448;27;45491;-79
2021/08/11 07:24:18;;;;;;;;;3.00;3.00;;;;;;;;5165231;27;46053;-82
2021/08/11 07:26:43;;;;;;;;;2.33;2.33;;;;;;;;5164009;27;45426;-77
2021/08/11 07:29:09;;;;;;;;;2.67;2.67;;;;;;;;5164982;27;45318;-78
2021/08/11 07:31:34;;;;;;;;;4.67;4.67;;;;;;;;5164657;27;45363;-80
2021/08/11 07:33:59;;;;;;;;;3.33;2.33;;;;;;;;5165026;27;45312;-80
2021/08/11 07:36:25;;;;;;;;;2.67;2.67;;;;;;;;5165313;27;45292;-83
2021/08/11 07:38:51;;;;;;;;;5.00;4.00;;;;;;;;5165720;27;45237;-80
2021/08/11 07:41:16;;;;;;;;;6.00;4.00;;;;;;;;5165517;27;45293;-82
2021/08/11 07:43:42;;;;;;;;;3.00;2.00;;;;;;;;5138703;27;46332;-82
2021/08/11 07:46:07;;;;;;;;;1.33;1.33;;;;;;;;5163671;27;45272;-81
2021/08/11 07:48:33;;;;;;;;;2.00;2.00;;;;;;;;5164876;27;45148;-79
2021/08/11 07:50:58;;;;;;;;;1.67;1.67;;;;;;;;5165219;27;45315;-82
2021/08/11 07:53:23;;;;;;;;;4.33;3.67;;;;;;;;5163585;27;45412;-80
2021/08/11 07:55:49;;;;;;;;;1.67;1.67;;;;;;;;5162556;27;45577;-78
2021/08/11 07:58:14;;;;;;;;;2.67;2.00;;;;;;;;5164719;27;45194;-77
2021/08/11 08:00:39;;;;;;;;;2.33;2.00;;;;;;;;5164306;27;45558;-78
2021/08/11 08:03:05;;;;;;;;;1.00;1.00;;;;;;;;5164514;27;45536;-78
2021/08/11 08:05:30;;;;;;;;;1.33;0.67;;;;;;;;5158510;27;45550;-79
2021/08/11 08:07:55;;;;;;;;;0.00;0.00;;;;;;;;5160134;27;45479;-78
2021/08/11 08:10:21;;;;;;;;;1.33;0.67;;;;;;;;5161441;27;45292;-78
2021/08/11 08:12:48;;;;;;;;;2.67;2.00;;;;;;;;5162171;27;45917;-78
2021/08/11 08:15:14;;;;;;;;;2.33;2.33;;;;;;;;5163765;27;45304;-77
2021/08/11 08:17:39;;;;;;;;;3.00;3.00;;;;;;;;5162759;27;45510;-78
2021/08/11 08:20:05;;;;;;;;;2.67;2.67;;;;;;;;5162504;27;45422;-76
2021/08/11 08:22:31;;;;;;;;;2.00;1.67;;;;;;;;5162858;27;46072;-77
2021/08/11 08:24:56;;;;;;;;;3.67;3.00;;;;;;;;5163869;27;45222;-78
2021/08/11 08:27:23;;;;;;;;;3.00;3.00;;;;;;;;5163970;27;45175;-76
2021/08/11 08:29:48;;;;;;;;;2.00;2.00;;;;;;;;5163687;27;45478;-78
2021/08/11 08:32:14;;;;;;;;;1.67;1.67;;;;;;;;5163184;27;45447;-78
2021/08/11 08:34:39;;;;;;;;;1.33;1.33;;;;;;;;5163036;27;45259;-78
2021/08/11 08:37:04;;;;;;;;;1.00;1.00;;;;;;;;5163767;27;45192;-78
2021/08/11 08:39:29;;;;;;;;;2.00;2.00;;;;;;;;5163744;27;45218;-76
2021/08/11 08:41:55;;;;;;;;;2.00;1.00;;;;;;;;5161763;27;45908;-76
2021/08/11 08:44:20;;;;;;;;;1.67;1.67;;;;;;;;5159972;27;45543;-75
2021/08/11 08:46:46;;;;;;;;;4.00;4.00;;;;;;;;5161714;27;45349;-76
2021/08/11 08:49:15;;;;;;;;;2.67;2.67;;;;;;;;5158935;27;45331;-76
2021/08/11 08:51:43;;;;;;;;;4.67;3.00;;;;;;;;5163366;27;45291;-76
2021/08/11 08:54:08;;;;;;;;;3.00;3.00;;;;;;;;5163245;27;45350;-75
2021/08/11 08:56:34;;;;;;;;;5.00;5.00;;;;;;;;5163155;27;45297;-76
2021/08/11 08:58:59;;;;;;;;;3.00;3.00;;;;;;;;5149925;27;45310;-76
2021/08/11 09:01:24;;;;;;;;;4.67;4.67;;;;;;;;5155681;27;46199;-76
2021/08/11 09:03:50;;;;;;;;;2.67;2.67;;;;;;;;5141700;27;45277;-76
2021/08/11 09:06:15;;;;;;;;;4.00;4.00;;;;;;;;5142108;27;45259;-82
2021/08/11 09:08:59;;;;;;;;;3.33;3.33;;;;;;;;5142216;27;45398;-82
2021/08/11 09:11:24;;;;;;;;;2.00;2.00;;;;;;;;5142054;27;46572;-83
2021/08/11 09:14:08;;;;;;;;;3.67;2.00;;;;;;;;5143155;27;45260;-84
2021/08/11 09:16:33;;;;;;;;;3.00;3.00;;;;;;;;5163141;27;45449;-82
2021/08/11 09:18:59;;;;;;;;;4.00;2.00;;;;;;;;5158274;27;45374;-83
2021/08/11 09:21:24;;;;;;;;;6.00;4.00;;;;;;;;5162329;27;46266;-83
2021/08/11 09:23:49;;;;;;;;;5.00;4.00;;;;;;;;5162520;27;45505;-81
2021/08/11 09:26:16;;;;;;;;;1.33;1.33;;;;;;;;5162730;27;45435;-81
2021/08/11 09:28:43;;;;;;;;;2.00;2.00;;;;;;;;5160493;27;45824;-81
2021/08/11 09:31:26;;;;;;;;;3.33;2.33;;;;;;;;5162139;27;46067;-80
2021/08/11 09:33:52;;;;;;;;;3.00;3.00;;;;;;;;5162061;27;45305;-81
2021/08/11 09:36:18;;;;;;;;;2.33;2.33;;;;;;;;5161395;27;45377;-81
2021/08/11 09:38:53;;;;;;;;;2.00;2.00;;;;;;;;5162590;27;45316;-81
2021/08/11 09:41:18;;;;;;;;;3.67;3.67;;;;;;;;5161550;27;45283;-80
2021/08/11 09:43:43;;;;;;;;;3.00;2.00;;;;;;;;5162475;27;45457;-80
2021/08/11 09:46:10;;;;;;;;;1.00;1.00;;;;;;;;5161228;27;45397;-81
2021/08/11 09:48:42;;;;;;;;;3.67;3.67;;;;;;;;5162375;27;45302;-81
2021/08/11 09:51:10;;;;;;;;;2.67;2.33;;;;;;;;5161153;27;46022;-80
2021/08/11 09:53:39;;;;;;;;;3.33;3.00;;;;;;;;5161947;27;45473;-81
2021/08/11 09:56:12;;;;;;;;;3.00;3.00;;;;;;;;5160730;27;45360;-80
2021/08/11 09:58:38;;;;;;;;;5.00;4.00;;;;;;;;5157770;27;45588;-81
2021/08/11 10:01:04;;;;;;;;;2.67;2.67;;;;;;;;5160296;27;45632;-81
2021/08/11 10:03:31;;;;;;;;;3.00;3.00;;;;;;;;5162507;27;45308;-80
2021/08/11 10:05:57;;;;;;;;;3.00;3.00;;;;;;;;5161842;27;45314;-82
2021/08/11 10:08:32;;;;;;;;;2.33;2.33;;;;;;;;5161367;27;45437;-81
2021/08/11 10:10:58;;;;;;;;;2.00;2.00;;;;;;;;5161702;27;46148;-79
2021/08/11 10:13:24;;;;;;;;;3.00;3.00;;;;;;;;5162246;27;45385;-79
2021/08/11 10:15:49;;;;;;;;;3.00;3.00;;;;;;;;5162888;27;45326;-79
2021/08/11 10:18:21;;;;;;;;;1.67;1.67;;;;;;;;5162174;27;45412;-78
2021/08/11 10:20:48;;;;;;;;;3.00;3.00;;;;;;;;5163223;27;46280;-77
2021/08/11 10:23:16;;;;;;;;;3.00;3.00;;;;;;;;5163004;27;45439;-81
2021/08/11 10:25:42;;;;;;;;;2.67;2.67;;;;;;;;5164390;27;45241;-80
2021/08/11 10:28:08;;;;;;;;;2.33;2.33;;;;;;;;5143035;27;45906;-82
2021/08/11 10:30:33;;;;;;;;;3.00;3.00;;;;;;;;5161728;27;45229;-79
2021/08/11 10:33:00;;;;;;;;;3.33;2.00;;;;;;;;5162126;27;45257;-79
2021/08/11 10:35:25;;;;;;;;;4.00;4.00;;;;;;;;5162375;27;45528;-83
2021/08/11 10:37:51;;;;;;;;;5.00;4.67;;;;;;;;5162164;27;45330;-83
2021/08/11 10:40:16;;;;;;;;;3.00;3.00;;;;;;;;5161777;27;45331;-79
2021/08/11 10:42:51;;;;;;;;;3.75;3.75;;;;;;;;5161805;27;45289;-83
2021/08/11 10:45:20;;;;;;;;;2.00;2.00;;;;;;;;5162295;27;45554;-81
2021/08/11 10:47:45;;;;;;;;;3.33;3.33;;;;;;;;5161249;27;45244;-80
2021/08/11 10:50:11;;;;;;;;;2.33;2.33;;;;;;;;5160972;27;45221;-80
2021/08/11 10:52:36;;;;;;;;;2.00;2.00;;;;;;;;5141698;27;45494;-83
2021/08/11 10:55:04;;;;;;;;;3.00;3.00;;;;;;;;5159944;27;45713;-81
2021/08/11 10:57:39;;;;;;;;;2.33;2.33;;;;;;;;5162692;27;45303;-84
2021/08/11 11:00:06;;;;;;;;;3.00;3.00;;;;;;;;5162713;27;46118;-82
2021/08/11 11:02:37;;;;;;;;;3.00;2.00;;;;;;;;5164895;27;45404;-79
2021/08/11 11:05:03;;;;;;;;;5.33;5.33;;;;;;;;5165539;27;45156;-81
2021/08/11 11:07:29;;;;;;;;;7.00;7.00;;;;;;;;5164712;27;45312;-79
2021/08/11 11:10:14;;;;;;;;;4.67;4.67;;;;;;;;5165189;27;46097;-80
2021/08/11 11:12:39;;;;;;;;;2.00;2.00;;;;;;;;5145827;27;45508;-81
2021/08/11 11:15:05;;;;;;;;;4.00;3.33;;;;;;;;5165186;27;45223;-81
2021/08/11 11:17:30;;;;;;;;;3.00;3.00;;;;;;;;5164620;27;45255;-81
2021/08/11 11:20:08;;;;;;;;;5.00;5.00;;;;;;;;5165101;27;45310;-83
2021/08/11 11:22:34;;;;;;;;;4.33;4.00;;;;;;;;5164920;27;45343;-81
2021/08/11 11:24:59;;;;;;;;;4.00;3.33;;;;;;;;5165227;27;45298;-79
2021/08/11 11:27:56;;;;;;;;;4.33;3.33;;;;;;;;5165926;27;45293;-76
2021/08/11 11:30:27;;;;;;;;;3.00;2.33;;;;;;;;5159489;27;46315;-76
2021/08/11 11:33:15;;;;;;;;;5.00;4.33;;;;;;;;5161753;27;45368;-77
2021/08/11 11:35:41;;;;;;;;;5.33;4.67;;;;;;;;5155117;27;45449;-78
2021/08/11 11:38:07;;;;;;;;;4.33;4.00;;;;;;;;5160517;27;45376;-78
2021/08/11 11:40:33;;;;;;;;;20.67;18.33;;;;;;;;5153515;27;46129;-76
2021/08/11 11:43:17;;;;;;;;;5.00;5.00;;;;;;;;5153428;27;45760;-76
2021/08/11 11:45:43;;;;;;;;;5.33;4.67;;;;;;;;5161758;27;45334;-78
2021/08/11 11:48:08;;;;;;;;;5.00;4.67;;;;;;;;5164680;27;45548;-76
2021/08/11 11:50:41;;;;;;;;;5.33;4.00;;;;;;;;5160132;27;45318;-75
2021/08/11 11:53:07;;;;;;;;;4.00;4.00;;;;;;;;5150701;27;45289;-75
2021/08/11 11:55:34;;;;;;;;;6.00;6.00;;;;;;;;5152137;27;45286;-75
2021/08/11 11:58:07;;;;;;;;;4.67;4.67;;;;;;;;5151399;27;46362;-75
2021/08/11 12:00:33;;;;;;;;;4.00;4.00;;;;;;;;5152428;27;46269;-75
2021/08/11 12:02:58;;;;;;;;;4.33;4.33;;;;;;;;5160717;27;45204;-75
2021/08/11 12:05:24;;;;;;;;;5.67;5.67;;;;;;;;5164444;27;45392;-75
2021/08/11 12:07:50;;;;;;;;;4.33;3.00;;;;;;;;5144704;27;46277;-75
2021/08/11 12:10:23;;;;;;;;;6.00;6.00;;;;;;;;5163655;27;45276;-75
2021/08/11 12:13:00;;;;;;;;;4.00;4.00;;;;;;;;5164070;27;45334;-76
2021/08/11 12:15:27;;;;;;;;;4.67;4.67;;;;;;;;5163613;27;45290;-75
2021/08/11 12:17:55;;;;;;;;;6.33;6.33;;;;;;;;5163573;27;46490;-75
2021/08/11 12:20:34;;;;;;;;;4.00;3.00;;;;;;;;5161893;27;46279;-74
2021/08/11 12:23:20;;;;;;;;;6.00;6.00;;;;;;;;5164204;27;45378;-75
2021/08/11 12:25:47;;;;;;;;;4.33;4.33;;;;;;;;5163268;27;45295;-77
2021/08/11 12:28:13;;;;;;;;;4.00;4.00;;;;;;;;5163099;27;45428;-77
2021/08/11 12:30:40;;;;;;;;;3.00;3.00;;;;;;;;5160731;27;45703;-76
2021/08/11 12:33:06;;;;;;;;;6.00;5.33;;;;;;;;5162226;27;45418;-76
2021/08/11 12:35:32;;;;;;;;;4.00;4.00;;;;;;;;5163607;27;45219;-74
2021/08/11 12:37:58;;;;;;;;;4.33;4.33;;;;;;;;5160628;27;45319;-74
2021/08/11 12:40:31;;;;;;;;;4.00;4.00;;;;;;;;5162865;27;46115;-77
2021/08/11 12:42:57;;;;;;;;;6.67;5.33;;;;;;;;5161974;27;45305;-78
2021/08/11 12:45:23;;;;;;;;;4.67;4.67;;;;;;;;5164469;27;45419;-75
2021/08/11 12:47:48;;;;;;;;;5.00;5.00;;;;;;;;5164190;27;46435;-75
2021/08/11 12:50:17;;;;;;;;;6.00;6.00;;;;;;;;5143690;27;45467;-74
2021/08/11 12:52:55;;;;;;;;;5.33;4.67;;;;;;;;5163585;27;45317;-75
2021/08/11 12:55:34;;;;;;;;;6.33;6.33;;;;;;;;5163904;27;45416;-75
2021/08/11 12:57:59;;;;;;;;;4.67;4.67;;;;;;;;5164043;27;45483;-75
2021/08/11 13:00:42;;;;;;;;;6.33;6.33;;;;;;;;5169329;27;45541;-76
2021/08/11 13:03:10;;;;;;;;;7.67;7.67;;;;;;;;5165375;27;45201;-76
2021/08/11 13:05:46;;;;;;;;;6.00;6.00;;;;;;;;5165320;27;45301;-76
2021/08/11 13:08:12;;;;;;;;;4.00;4.00;;;;;;;;5169224;27;45359;-77
2021/08/11 13:10:39;;;;;;;;;5.67;5.00;;;;;;;;5167459;27;46543;-77
2021/08/11 13:13:23;;;;;;;;;5.33;5.33;;;;;;;;5163857;27;45384;-76
2021/08/11 13:16:05;;;;;;;;;6.00;6.00;;;;;;;;5163852;27;45336;-76
2021/08/11 13:18:30;;;;;;;;;6.00;6.00;;;;;;;;5162935;27;45346;-77
2021/08/11 13:20:55;;;;;;;;;7.00;7.00;;;;;;;;5161935;27;45766;-77
2021/08/11 13:23:21;;;;;;;;;6.67;6.67;;;;;;;;5163507;27;45339;-78
2021/08/11 13:25:46;;;;;;;;;5.00;5.00;;;;;;;;5164705;27;45457;-78
2021/08/11 13:28:13;;;;;;;;;5.00;5.00;;;;;;;;5163074;27;45337;-78
2021/08/11 13:30:38;;;;;;;;;3.00;3.00;;;;;;;;5162761;27;46163;-78
2021/08/11 13:33:04;;;;;;;;;5.00;5.00;;;;;;;;5164084;27;45219;-77
2021/08/11 13:35:31;;;;;;;;;6.33;6.33;;;;;;;;5166059;27;45317;-78
2021/08/11 13:37:57;;;;;;;;;5.00;5.00;;;;;;;;5165058;27;45284;-77
2021/08/11 13:40:22;;;;;;;;;7.00;5.33;;;;;;;;5167181;27;45416;-77
2021/08/11 13:42:47;;;;;;;;;5.00;5.00;;;;;;;;5171051;27;45345;-78
2021/08/11 13:45:13;;;;;;;;;8.00;8.00;;;;;;;;5170457;27;45220;-78
2021/08/11 13:47:39;;;;;;;;;6.00;6.00;;;;;;;;5167937;27;45218;-77
2021/08/11 13:50:05;;;;;;;;;9.00;9.00;;;;;;;;5163607;27;45300;-75
2021/08/11 13:52:31;;;;;;;;;7.67;6.00;;;;;;;;5175597;27;44733;-77
2021/08/11 13:54:56;;;;;;;;;7.00;6.00;;;;;;;;5165157;27;45326;-78
2021/08/11 13:57:21;;;;;;;;;7.00;7.00;;;;;;;;5166050;27;45408;-79
2021/08/11 13:59:47;;;;;;;;;5.00;5.00;;;;;;;;5169111;27;45465;-78
2021/08/11 14:02:12;;;;;;;;;9.00;9.00;;;;;;;;5164361;27;45396;-77
2021/08/11 14:04:37;;;;;;;;;7.67;7.67;;;;;;;;5162848;27;45601;-77
2021/08/11 14:07:03;;;;;;;;;6.00;6.00;;;;;;;;5164176;27;45524;-77
2021/08/11 14:09:29;;;;;;;;;6.00;6.00;;;;;;;;5162423;27;46280;-77
2021/08/11 14:11:55;;;;;;;;;7.00;7.00;;;;;;;;5162708;27;45740;-76
2021/08/11 14:14:20;;;;;;;;;7.67;7.67;;;;;;;;5162682;27;45332;-76
2021/08/11 14:16:45;;;;;;;;;7.33;6.33;;;;;;;;5163448;27;45301;-76
2021/08/11 14:19:11;;;;;;;;;8.33;6.00;;;;;;;;5161546;27;45418;-77
2021/08/11 14:21:36;;;;;;;;;6.00;6.00;;;;;;;;5163408;27;45243;-76
2021/08/11 14:24:02;;;;;;;;;7.33;7.33;;;;;;;;5166114;27;45207;-79
2021/08/11 14:26:27;;;;;;;;;8.33;7.67;;;;;;;;5162840;27;45282;-77
2021/08/11 14:28:54;;;;;;;;;8.67;8.33;;;;;;;;5162057;27;45240;-77
2021/08/11 14:31:20;;;;;;;;;6.00;6.00;;;;;;;;5162388;27;45436;-77
2021/08/11 14:33:45;;;;;;;;;5.67;5.67;;;;;;;;5166206;27;45708;-77
2021/08/11 14:36:11;;;;;;;;;6.00;6.00;;;;;;;;5165652;27;45264;-77
2021/08/11 14:38:36;;;;;;;;;9.00;8.00;;;;;;;;5165682;27;45325;-76
2021/08/11 14:41:02;;;;;;;;;8.00;7.67;;;;;;;;5162668;27;45431;-77